Juniper Hills, California
Current Conditions -  °F | °C
As of 3:53 PM on Saturday 22 Nov 2014 (Local Time) from KPMD Reporting Station
Haze Haze  
Wind Chill: 63°   Ceiling: Unl
Heat Index: 63°   Visibility: 6mi
Dew Point: 44°   Wind: 25mph
Humidity: 50%   Direction: 280°W
Pressure: 30.03"   Gusts: 36mph
Location:  34.4844°N, 117.91°W
Report Text: KPMD 222353Z AUTO 28022G31KT 6SM HZ CLR 17/07 A3003 RMK AO2 PK WND 30040/2306 SLP165 T01720067 10217 20172 55006
Loading
Personal Weather Stations






























Interactive Weather Map New forecast layout! Learn more

10-Day Weather Forecast

Advertisements
Track Severe Weather on mobile